Faulkner, Iowa
Current Conditions -  °F | °C
As of 2:35 AM on Saturday 29 Nov 2014 (Local Time) from KIFA Reporting Station
Haze Haze  
Wind Chill: 15°   Ceiling: Unl
Heat Index: 23°   Visibility: 3mi
Dew Point: 21°   Wind: 7mph
Humidity: 93%   Direction: 120°ESE
Pressure: 29.6"   Gusts: NA
Location:  42.5577°N, 93.0852°W
Report Text: KIFA 290835Z AUTO 12006KT 3SM BR CLR M05/M06 A2960 RMK AO2 T10511060
Loading
Personal Weather Stations






























Interactive Weather Map New forecast layout! Learn more

10-Day Weather Forecast

Advertisements
Track Severe Weather on mobile